Bettina K — PBEW — position and weather

sailwx.info

Track history (hours):
 
Tides and Currents Weather Stations Pressure Air Temp Water Temp Dewpoint Dewpoint Depression Visibility Wind Speed Wind Dir Waves Ship Positions

Bettina K

Last reported at 2016-Jul-01 02:33 UTC. Time now 2016-Jul-01 09:58 UTC.
Position N 54°01' W 005°24'.

Length 82 m; draft 5 m.

Type: Ship. MMSI: 244730469.

Date/timePositionNaut miles runAvg speedWind from/ knotsBaromVisibWave heightAir tempDewpointWater temp
2016-Jul-01 02:33N 54°01' W 005°24'1010.0
2016-Jul-01 01:32N 54°11' W 005°21'10 9.8
2016-Jul-01 00:34N 54°21' W 005°19'9 9.1
2016-Jun-30 23:34N 54°30' W 005°20'9 8.5
2016-Jun-30 22:33N 54°38' W 005°25'7 6.9
2016-Jun-30 21:34N 54°42' W 005°34'9 9.4
2016-Jun-30 20:33N 54°40' W 005°50'5 0.4
2016-Jun-30 07:31N 54°37' W 005°55'0 0.0
2016-Jun-30 06:07N 54°37' W 005°55'0 0.0
2016-Jun-30 05:26N 54°37' W 005°55'0 0.0
2016-Jun-30 04:30N 54°37' W 005°55'0 0.0
2016-Jun-30 03:32N 54°37' W 005°55'0 0.0
2016-Jun-30 01:32N 54°37' W 005°55'0 0.0
2016-Jun-29 19:32N 54°37' W 005°55'0 0.0
2016-Jun-29 18:30N 54°37' W 005°55'0 0.0
2016-Jun-29 16:31N 54°37' W 005°55'0 0.0
2016-Jun-29 06:28N 54°37' W 005°55'0 0.0
2016-Jun-29 05:30N 54°37' W 005°55'0 0.0
2016-Jun-29 04:19N 54°37' W 005°55'0 0.0
2016-Jun-29 03:24N 54°37' W 005°55'0 0.0
2016-Jun-29 02:32N 54°37' W 005°55'0 0.0
2016-Jun-28 23:32N 54°37' W 005°55'0 0.0
2016-Jun-28 22:22N 54°37' W 005°55'0 0.0
2016-Jun-28 16:28N 54°37' W 005°55'6 5.9
2016-Jun-28 15:31N 54°41' W 005°48'6 6.0
2016-Jun-28 14:33N 54°43' W 005°39'5 5.1
2016-Jun-28 13:34N 54°43' W 005°31'5 5.4
2016-Jun-28 12:34N 54°41' W 005°22'0 0.2
2016-Jun-28 11:34N 54°42' W 005°22'2 2.1
2016-Jun-28 10:33N 54°43' W 005°25'2 1.5
2016-Jun-28 09:34N 54°41' W 005°25'8 7.8
2016-Jun-28 08:34N 54°34' W 005°19'8 7.8
2016-Jun-28 07:34N 54°27' W 005°14'8 7.3
2016-Jun-28 06:31N 54°20' W 005°10'15 6.7
2016-Jun-28 04:15N 54°06' W 004°59'6 6.4
2016-Jun-28 03:17N 54°00' W 004°55'35 6.0
2016-Jun-27 21:33N 53°42' W 004°06'8 8.6
2016-Jun-27 20:33N 53°38' W 003°53'9 8.7
2016-Jun-27 19:34N 53°34' W 003°40'9 9.4
2016-Jun-27 18:34N 53°33' W 003°24'8 8.4
2016-Jun-27 17:34N 53°32' W 003°10'10 9.7
2016-Jun-27 16:33N 53°24' W 003°00'5 5.3
2016-Jun-27 15:33N 53°19' W 002°57'2 2.3
2016-Jun-27 14:31N 53°18' W 002°54'0 0.0
2016-Jun-27 13:31N 53°18' W 002°54'0 0.0
2016-Jun-27 12:31N 53°18' W 002°54'0 0.0
2016-Jun-27 11:31N 53°18' W 002°54'0 0.0
2016-Jun-27 10:28N 53°18' W 002°54'0 0.0
2016-Jun-27 09:31N 53°18' W 002°54'0 0.0
2016-Jun-27 08:31N 53°18' W 002°54'0 0.0
2016-Jun-27 07:28N 53°18' W 002°54'0 0.0
2016-Jun-27 06:31N 53°18' W 002°54'0 0.0
2016-Jun-27 05:25N 53°18' W 002°54'0 0.0
2016-Jun-27 04:31N 53°18' W 002°54'0 0.0
2016-Jun-27 03:31N 53°18' W 002°54'0 0.0
2016-Jun-27 02:31N 53°18' W 002°54'0 0.0
2016-Jun-27 01:31N 53°18' W 002°54'0 0.0
2016-Jun-27 00:28N 53°18' W 002°54'0 0.0
2016-Jun-26 23:28N 53°18' W 002°54'0 0.0
2016-Jun-26 22:31N 53°18' W 002°54'0 0.0
2016-Jun-26 21:31N 53°18' W 002°54'0 0.0
2016-Jun-26 20:31N 53°18' W 002°54'0 0.0
2016-Jun-26 19:31N 53°18' W 002°54'0 0.0
2016-Jun-26 18:31N 53°18' W 002°54'0 0.0
2016-Jun-26 17:31N 53°18' W 002°54'0 0.0
2016-Jun-26 16:31N 53°18' W 002°54'0 0.0
2016-Jun-26 15:31N 53°18' W 002°54'0 0.0
2016-Jun-26 14:31N 53°18' W 002°54'0 0.0
2016-Jun-26 13:31N 53°18' W 002°54'0 0.0
2016-Jun-26 12:31N 53°18' W 002°54'0 0.0
2016-Jun-26 11:22N 53°18' W 002°54'0 0.0
2016-Jun-26 10:31N 53°18' W 002°54'0 0.0
2016-Jun-26 09:31N 53°18' W 002°54'0 0.0
2016-Jun-26 08:28N 53°18' W 002°54'0 0.0
2016-Jun-26 07:22N 53°18' W 002°54'0 0.0
2016-Jun-26 06:31N 53°18' W 002°54'0 0.0
2016-Jun-26 05:31N 53°18' W 002°54'0 0.0
2016-Jun-26 04:31N 53°18' W 002°54'0 0.0
2016-Jun-26 03:28N 53°18' W 002°54'0 0.0
2016-Jun-26 02:31N 53°18' W 002°54'0 0.0
2016-Jun-26 01:31N 53°18' W 002°54'0 0.0
2016-Jun-26 00:31N 53°18' W 002°54'0 0.0
2016-Jun-25 23:31N 53°18' W 002°54'0 0.0
2016-Jun-25 22:31N 53°18' W 002°54'0 0.0
2016-Jun-25 21:31N 53°18' W 002°54'0 0.0
2016-Jun-25 20:31N 53°18' W 002°54'0 0.0
2016-Jun-25 19:31N 53°18' W 002°54'0 0.0
2016-Jun-25 18:31N 53°18' W 002°54'0 0.0
2016-Jun-25 17:31N 53°18' W 002°54'0 0.0
2016-Jun-25 16:31N 53°18' W 002°54'0 0.0
2016-Jun-25 15:31N 53°18' W 002°54'0 0.0
2016-Jun-25 14:25N 53°18' W 002°54'0 0.0
2016-Jun-25 13:31N 53°18' W 002°54'0 0.0
2016-Jun-25 12:31N 53°18' W 002°54'0 0.0
2016-Jun-25 11:28N 53°18' W 002°54'0 0.0
2016-Jun-25 10:31N 53°18' W 002°54'0 0.0
2016-Jun-25 09:31N 53°18' W 002°54'0 0.0
2016-Jun-25 08:31N 53°18' W 002°54'0 0.0
2016-Jun-25 07:31N 53°18' W 002°54'0 0.0
2016-Jun-25 06:31N 53°18' W 002°54'0 0.0
2016-Jun-25 05:31N 53°18' W 002°54'0 0.0
2016-Jun-25 04:31N 53°18' W 002°54'0 0.0
2016-Jun-25 03:25N 53°18' W 002°54'0 0.0
2016-Jun-25 02:31N 53°18' W 002°54'0 0.0
2016-Jun-25 01:31N 53°18' W 002°54'0 0.0
2016-Jun-25 00:28N 53°18' W 002°54'0 0.0
2016-Jun-24 23:31N 53°18' W 002°54'0 0.0
2016-Jun-24 22:31N 53°18' W 002°54'0 0.0
2016-Jun-24 21:31N 53°18' W 002°54'0 0.0
2016-Jun-24 20:31N 53°18' W 002°54'0 0.0
2016-Jun-24 19:31N 53°18' W 002°54'0 0.0
2016-Jun-24 18:31N 53°18' W 002°54'0 0.0
2016-Jun-24 17:31N 53°18' W 002°54'0 0.0
2016-Jun-24 16:28N 53°18' W 002°54'0 0.0
2016-Jun-24 15:31N 53°18' W 002°54'0 0.0
2016-Jun-24 14:31N 53°18' W 002°54'0 0.0
2016-Jun-24 13:31N 53°18' W 002°54'0 0.0
2016-Jun-24 12:28N 53°18' W 002°54'0 0.0
2016-Jun-24 11:31N 53°18' W 002°54'0 0.0
2016-Jun-24 10:31N 53°18' W 002°54'0 0.0
2016-Jun-24 09:31N 53°18' W 002°54'0 0.0
2016-Jun-24 08:31N 53°18' W 002°54'0 0.0
2016-Jun-24 07:31N 53°18' W 002°54'0 0.0
2016-Jun-24 04:31N 53°18' W 002°54'0 0.0
2016-Jun-24 03:31N 53°18' W 002°54'2 2.4
2016-Jun-24 02:33N 53°19' W 002°57'2 1.5
2016-Jun-24 01:33N 53°21' W 002°58'6 6.0
2016-Jun-24 00:33N 53°26' W 003°01'9 8.7
2016-Jun-23 23:33N 53°31' W 003°13'8 7.5
2016-Jun-23 22:33N 53°30' W 003°26'1010.0
2016-Jun-23 21:33N 53°30' W 003°43'1010.4
2016-Jun-23 20:33N 53°30' W 004°00'144 7.1
2016-Jun-23 00:14N 51°23' W 005°49'15 6.9
2016-Jun-22 22:04N 51°08' W 005°50'4 7.1
2016-Jun-22 21:32N 51°04' W 005°49'8 7.1
2016-Jun-22 20:23N 50°56' W 005°48'6 7.2
2016-Jun-22 19:33N 50°50' W 005°47'7 7.3
2016-Jun-22 18:33N 50°42' W 005°47'7 7.4
2016-Jun-22 17:33N 50°35' W 005°49'8 7.7
2016-Jun-22 16:33N 50°28' W 005°52'8 7.7
2016-Jun-22 15:33N 50°20' W 005°52'8 8.1
2016-Jun-22 14:33N 50°12' W 005°53'154 9.0
2016-Jun-21 21:28N 47°41' W 005°05'  
Track history (hours):
 
Tides and Currents Weather Stations Pressure Air Temp Water Temp Dewpoint Dewpoint Depression Visibility Wind Speed Wind Dir Waves Ship Positions

Bettina K

Last reported at 2016-Jul-01 02:33 UTC. Time now 2016-Jul-01 09:58 UTC.
Position N 54°01' W 005°24'.

Length 82 m; draft 5 m.

Type: Ship. MMSI: 244730469.

Date/timePositionNaut miles runAvg speedWind from/ knotsBaromVisibWave heightAir tempDewpointWater temp
2016-Jul-01 02:33N 54°01' W 005°24'1010.0
2016-Jul-01 01:32N 54°11' W 005°21'10 9.8
2016-Jul-01 00:34N 54°21' W 005°19'9 9.1
2016-Jun-30 23:34N 54°30' W 005°20'9 8.5
2016-Jun-30 22:33N 54°38' W 005°25'7 6.9
2016-Jun-30 21:34N 54°42' W 005°34'9 9.4
2016-Jun-30 20:33N 54°40' W 005°50'5 0.4
2016-Jun-30 07:31N 54°37' W 005°55'0 0.0
2016-Jun-30 06:07N 54°37' W 005°55'0 0.0
2016-Jun-30 05:26N 54°37' W 005°55'0 0.0
2016-Jun-30 04:30N 54°37' W 005°55'0 0.0
2016-Jun-30 03:32N 54°37' W 005°55'0 0.0
2016-Jun-30 01:32N 54°37' W 005°55'0 0.0
2016-Jun-29 19:32N 54°37' W 005°55'0 0.0
2016-Jun-29 18:30N 54°37' W 005°55'0 0.0
2016-Jun-29 16:31N 54°37' W 005°55'0 0.0
2016-Jun-29 06:28N 54°37' W 005°55'0 0.0
2016-Jun-29 05:30N 54°37' W 005°55'0 0.0
2016-Jun-29 04:19N 54°37' W 005°55'0 0.0
2016-Jun-29 03:24N 54°37' W 005°55'0 0.0
2016-Jun-29 02:32N 54°37' W 005°55'0 0.0
2016-Jun-28 23:32N 54°37' W 005°55'0 0.0
2016-Jun-28 22:22N 54°37' W 005°55'0 0.0
2016-Jun-28 16:28N 54°37' W 005°55'6 5.9
2016-Jun-28 15:31N 54°41' W 005°48'6 6.0
2016-Jun-28 14:33N 54°43' W 005°39'5 5.1
2016-Jun-28 13:34N 54°43' W 005°31'5 5.4
2016-Jun-28 12:34N 54°41' W 005°22'0 0.2
2016-Jun-28 11:34N 54°42' W 005°22'2 2.1
2016-Jun-28 10:33N 54°43' W 005°25'2 1.5
2016-Jun-28 09:34N 54°41' W 005°25'8 7.8
2016-Jun-28 08:34N 54°34' W 005°19'8 7.8
2016-Jun-28 07:34N 54°27' W 005°14'8 7.3
2016-Jun-28 06:31N 54°20' W 005°10'15 6.7
2016-Jun-28 04:15N 54°06' W 004°59'6 6.4
2016-Jun-28 03:17N 54°00' W 004°55'35 6.0
2016-Jun-27 21:33N 53°42' W 004°06'8 8.6
2016-Jun-27 20:33N 53°38' W 003°53'9 8.7
2016-Jun-27 19:34N 53°34' W 003°40'9 9.4
2016-Jun-27 18:34N 53°33' W 003°24'8 8.4
2016-Jun-27 17:34N 53°32' W 003°10'10 9.7
2016-Jun-27 16:33N 53°24' W 003°00'5 5.3
2016-Jun-27 15:33N 53°19' W 002°57'2 2.3
2016-Jun-27 14:31N 53°18' W 002°54'0 0.0
2016-Jun-27 13:31N 53°18' W 002°54'0 0.0
2016-Jun-27 12:31N 53°18' W 002°54'0 0.0
2016-Jun-27 11:31N 53°18' W 002°54'0 0.0
2016-Jun-27 10:28N 53°18' W 002°54'0 0.0
2016-Jun-27 09:31N 53°18' W 002°54'0 0.0
2016-Jun-27 08:31N 53°18' W 002°54'0 0.0
2016-Jun-27 07:28N 53°18' W 002°54'0 0.0
2016-Jun-27 06:31N 53°18' W 002°54'0 0.0
2016-Jun-27 05:25N 53°18' W 002°54'0 0.0
2016-Jun-27 04:31N 53°18' W 002°54'0 0.0
2016-Jun-27 03:31N 53°18' W 002°54'0 0.0
2016-Jun-27 02:31N 53°18' W 002°54'0 0.0
2016-Jun-27 01:31N 53°18' W 002°54'0 0.0
2016-Jun-27 00:28N 53°18' W 002°54'0 0.0
2016-Jun-26 23:28N 53°18' W 002°54'0 0.0
2016-Jun-26 22:31N 53°18' W 002°54'0 0.0
2016-Jun-26 21:31N 53°18' W 002°54'0 0.0
2016-Jun-26 20:31N 53°18' W 002°54'0 0.0
2016-Jun-26 19:31N 53°18' W 002°54'0 0.0
2016-Jun-26 18:31N 53°18' W 002°54'0 0.0
2016-Jun-26 17:31N 53°18' W 002°54'0 0.0
2016-Jun-26 16:31N 53°18' W 002°54'0 0.0
2016-Jun-26 15:31N 53°18' W 002°54'0 0.0
2016-Jun-26 14:31N 53°18' W 002°54'0 0.0
2016-Jun-26 13:31N 53°18' W 002°54'0 0.0
2016-Jun-26 12:31N 53°18' W 002°54'0 0.0
2016-Jun-26 11:22N 53°18' W 002°54'0 0.0
2016-Jun-26 10:31N 53°18' W 002°54'0 0.0
2016-Jun-26 09:31N 53°18' W 002°54'0 0.0
2016-Jun-26 08:28N 53°18' W 002°54'0 0.0
2016-Jun-26 07:22N 53°18' W 002°54'0 0.0
2016-Jun-26 06:31N 53°18' W 002°54'0 0.0
2016-Jun-26 05:31N 53°18' W 002°54'0 0.0
2016-Jun-26 04:31N 53°18' W 002°54'0 0.0
2016-Jun-26 03:28N 53°18' W 002°54'0 0.0
2016-Jun-26 02:31N 53°18' W 002°54'0 0.0
2016-Jun-26 01:31N 53°18' W 002°54'0 0.0
2016-Jun-26 00:31N 53°18' W 002°54'0 0.0
2016-Jun-25 23:31N 53°18' W 002°54'0 0.0
2016-Jun-25 22:31N 53°18' W 002°54'0 0.0
2016-Jun-25 21:31N 53°18' W 002°54'0 0.0
2016-Jun-25 20:31N 53°18' W 002°54'0 0.0
2016-Jun-25 19:31N 53°18' W 002°54'0 0.0
2016-Jun-25 18:31N 53°18' W 002°54'0 0.0
2016-Jun-25 17:31N 53°18' W 002°54'0 0.0
2016-Jun-25 16:31N 53°18' W 002°54'0 0.0
2016-Jun-25 15:31N 53°18' W 002°54'0 0.0
2016-Jun-25 14:25N 53°18' W 002°54'0 0.0
2016-Jun-25 13:31N 53°18' W 002°54'0 0.0
2016-Jun-25 12:31N 53°18' W 002°54'0 0.0
2016-Jun-25 11:28N 53°18' W 002°54'0 0.0
2016-Jun-25 10:31N 53°18' W 002°54'0 0.0
2016-Jun-25 09:31N 53°18' W 002°54'0 0.0
2016-Jun-25 08:31N 53°18' W 002°54'0 0.0
2016-Jun-25 07:31N 53°18' W 002°54'0 0.0
2016-Jun-25 06:31N 53°18' W 002°54'0 0.0
2016-Jun-25 05:31N 53°18' W 002°54'0 0.0
2016-Jun-25 04:31N 53°18' W 002°54'0 0.0
2016-Jun-25 03:25N 53°18' W 002°54'0 0.0
2016-Jun-25 02:31N 53°18' W 002°54'0 0.0
2016-Jun-25 01:31N 53°18' W 002°54'0 0.0
2016-Jun-25 00:28N 53°18' W 002°54'0 0.0
2016-Jun-24 23:31N 53°18' W 002°54'0 0.0
2016-Jun-24 22:31N 53°18' W 002°54'0 0.0
2016-Jun-24 21:31N 53°18' W 002°54'0 0.0
2016-Jun-24 20:31N 53°18' W 002°54'0 0.0
2016-Jun-24 19:31N 53°18' W 002°54'0 0.0
2016-Jun-24 18:31N 53°18' W 002°54'0 0.0
2016-Jun-24 17:31N 53°18' W 002°54'0 0.0
2016-Jun-24 16:28N 53°18' W 002°54'0 0.0
2016-Jun-24 15:31N 53°18' W 002°54'0 0.0
2016-Jun-24 14:31N 53°18' W 002°54'0 0.0
2016-Jun-24 13:31N 53°18' W 002°54'0 0.0
2016-Jun-24 12:28N 53°18' W 002°54'0 0.0
2016-Jun-24 11:31N 53°18' W 002°54'0 0.0
2016-Jun-24 10:31N 53°18' W 002°54'0 0.0
2016-Jun-24 09:31N 53°18' W 002°54'0 0.0
2016-Jun-24 08:31N 53°18' W 002°54'0 0.0
2016-Jun-24 07:31N 53°18' W 002°54'0 0.0
2016-Jun-24 04:31N 53°18' W 002°54'0 0.0
2016-Jun-24 03:31N 53°18' W 002°54'2 2.4
2016-Jun-24 02:33N 53°19' W 002°57'2 1.5
2016-Jun-24 01:33N 53°21' W 002°58'6 6.0
2016-Jun-24 00:33N 53°26' W 003°01'9 8.7
2016-Jun-23 23:33N 53°31' W 003°13'8 7.5
2016-Jun-23 22:33N 53°30' W 003°26'1010.0
2016-Jun-23 21:33N 53°30' W 003°43'1010.4
2016-Jun-23 20:33N 53°30' W 004°00'144 7.1
2016-Jun-23 00:14N 51°23' W 005°49'15 6.9
2016-Jun-22 22:04N 51°08' W 005°50'4 7.1
2016-Jun-22 21:32N 51°04' W 005°49'8 7.1
2016-Jun-22 20:23N 50°56' W 005°48'6 7.2
2016-Jun-22 19:33N 50°50' W 005°47'7 7.3
2016-Jun-22 18:33N 50°42' W 005°47'7 7.4
2016-Jun-22 17:33N 50°35' W 005°49'8 7.7
2016-Jun-22 16:33N 50°28' W 005°52'8 7.7
2016-Jun-22 15:33N 50°20' W 005°52'8 8.1
2016-Jun-22 14:33N 50°12' W 005°53'154 9.0
2016-Jun-21 21:28N 47°41' W 005°05'  

Dump ship's entire track history